createdAt,value
2024-05-09T00:01:53.601Z,12.27
2024-05-09T00:04:42.832Z,12.90
2024-05-09T00:07:34.652Z,10.67
2024-05-09T00:10:32.611Z,12.03
2024-05-09T00:13:24.366Z,11.93
2024-05-09T00:16:13.363Z,10.03
2024-05-09T00:19:02.400Z,11.73
2024-05-09T00:21:50.913Z,12.37
2024-05-09T00:24:42.055Z,11.27
2024-05-09T00:27:30.711Z,11.57
2024-05-09T00:30:27.948Z,12.43
2024-05-09T00:33:21.798Z,11.73
2024-05-09T00:36:10.442Z,12.60
2024-05-09T00:38:59.168Z,10.93
2024-05-09T00:41:50.864Z,10.20
2024-05-09T00:44:39.534Z,12.80
2024-05-09T00:47:28.874Z,15.10
2024-05-09T00:50:22.773Z,10.20
2024-05-09T00:53:21.464Z,11.63
2024-05-09T00:56:12.460Z,13.10
2024-05-09T00:59:04.750Z,15.27
2024-05-09T01:01:53.737Z,13.07
2024-05-09T01:04:42.794Z,13.43
2024-05-09T01:07:31.699Z,13.80
2024-05-09T01:10:27.716Z,12.67
2024-05-09T01:13:20.702Z,13.00
2024-05-09T01:16:12.125Z,11.93
2024-05-09T01:19:01.799Z,14.23
2024-05-09T01:21:50.653Z,16.43
2024-05-09T01:24:42.039Z,11.90
2024-05-09T01:27:30.671Z,9.83
2024-05-09T01:30:24.359Z,12.57
2024-05-09T01:33:16.812Z,14.10
2024-05-09T01:36:05.551Z,12.13
2024-05-09T01:38:54.138Z,13.93
2024-05-09T01:41:45.858Z,14.87
2024-05-09T01:44:34.799Z,14.80
2024-05-09T01:47:23.844Z,15.93
2024-05-09T01:50:16.356Z,13.07
2024-05-09T01:53:05.065Z,14.73
2024-05-09T01:55:53.485Z,15.80
2024-05-09T01:58:46.269Z,15.43
2024-05-09T02:01:55.553Z,15.60
2024-05-09T02:04:43.673Z,15.67
2024-05-09T02:07:32.271Z,17.90
2024-05-09T02:10:26.335Z,17.67
2024-05-09T02:13:21.023Z,16.13
2024-05-09T02:16:16.535Z,21.80
2024-05-09T02:19:05.678Z,19.57
2024-05-09T02:21:54.503Z,15.77
2024-05-09T02:24:42.966Z,16.07
2024-05-09T02:27:31.836Z,18.13
2024-05-09T02:30:30.001Z,16.50
2024-05-09T02:33:29.507Z,18.03
2024-05-09T02:36:18.102Z,16.40
2024-05-09T02:39:04.436Z,19.13
2024-05-09T02:41:53.090Z,17.00
2024-05-09T02:44:39.398Z,16.93
2024-05-09T02:47:29.362Z,17.93
2024-05-09T02:50:26.074Z,17.83
2024-05-09T02:53:19.866Z,16.90
2024-05-09T02:56:06.519Z,20.97
2024-05-09T02:58:56.868Z,19.70
2024-05-09T03:01:42.938Z,19.50
2024-05-09T03:04:31.870Z,19.73
2024-05-09T03:07:20.621Z,16.47
2024-05-09T03:10:18.265Z,20.60
2024-05-09T03:13:12.225Z,17.37
2024-05-09T03:16:00.191Z,18.17
2024-05-09T03:18:49.263Z,20.30
2024-05-09T03:21:39.474Z,18.33
2024-05-09T03:24:30.683Z,21.47
2024-05-09T03:27:16.591Z,20.23
2024-05-09T03:30:07.371Z,18.87
2024-05-09T03:32:53.762Z,21.47
2024-05-09T03:35:43.623Z,19.03
2024-05-09T03:38:32.639Z,17.70
2024-05-09T03:41:24.879Z,19.23
2024-05-09T03:44:13.531Z,24.20
2024-05-09T03:46:59.368Z,19.27
2024-05-09T03:49:48.206Z,16.73
2024-05-09T03:52:34.535Z,19.17
2024-05-09T03:55:23.263Z,16.60
2024-05-09T03:58:14.508Z,19.50
2024-05-09T04:01:03.288Z,15.33
2024-05-09T04:03:49.668Z,15.23
2024-05-09T04:06:38.271Z,17.00
2024-05-09T04:09:24.309Z,14.93
2024-05-09T04:12:13.654Z,17.07
2024-05-09T04:15:02.966Z,14.50
2024-05-09T04:17:52.135Z,17.43
2024-05-09T04:20:40.572Z,14.97
2024-05-09T04:23:30.334Z,14.73
2024-05-09T04:26:16.817Z,17.00
2024-05-09T04:29:05.632Z,12.77
2024-05-09T04:31:54.517Z,14.97
2024-05-09T04:34:42.978Z,12.03
2024-05-09T04:37:30.508Z,14.00
2024-05-09T04:40:28.099Z,12.63
2024-05-09T04:43:20.575Z,12.17
2024-05-09T04:46:09.123Z,13.47
2024-05-09T04:48:58.100Z,13.83
2024-05-09T04:51:46.577Z,13.70
2024-05-09T04:54:36.306Z,14.77
2024-05-09T04:57:25.186Z,15.63
2024-05-09T05:00:14.817Z,16.50
2024-05-09T05:03:13.821Z,16.47
2024-05-09T05:06:04.700Z,18.20
2024-05-09T05:08:53.293Z,16.20
2024-05-09T05:11:42.323Z,16.67
2024-05-09T05:14:28.609Z,16.13
2024-05-09T05:17:17.283Z,20.07
2024-05-09T05:20:04.834Z,16.70
2024-05-09T05:22:57.127Z,16.10
2024-05-09T05:25:43.535Z,20.80
2024-05-09T05:28:32.379Z,13.63
2024-05-09T05:31:18.471Z,14.90
2024-05-09T05:34:07.384Z,17.37
2024-05-09T05:36:53.339Z,16.93
2024-05-09T05:39:44.941Z,17.87
2024-05-09T05:42:30.914Z,17.70
2024-05-09T05:45:19.633Z,15.53
2024-05-09T05:48:07.495Z,16.93
2024-05-09T05:50:56.716Z,16.80
2024-05-09T05:53:43.000Z,18.20
2024-05-09T05:56:34.189Z,17.33
2024-05-09T05:59:20.345Z,16.87
2024-05-09T06:02:09.699Z,17.20
2024-05-09T06:04:55.936Z,17.67
2024-05-09T06:07:44.604Z,15.67
2024-05-09T06:10:37.805Z,20.50
2024-05-09T06:13:31.482Z,17.53
2024-05-09T06:16:17.371Z,18.37
2024-05-09T06:19:06.406Z,13.90
2024-05-09T06:21:52.740Z,16.57
2024-05-09T06:24:41.517Z,14.20
2024-05-09T06:27:27.640Z,12.40
2024-05-09T06:30:29.427Z,13.07
2024-05-09T06:33:21.300Z,13.60
2024-05-09T06:36:10.528Z,14.37
2024-05-09T06:38:56.797Z,14.57
2024-05-09T06:41:45.425Z,16.00
2024-05-09T06:44:31.378Z,14.60
2024-05-09T06:47:23.150Z,13.43
2024-05-09T06:50:19.576Z,14.43
2024-05-09T06:53:12.233Z,13.83
2024-05-09T06:55:58.201Z,14.57
2024-05-09T06:58:47.207Z,15.17
2024-05-09T07:01:33.184Z,13.27
2024-05-09T07:04:24.710Z,13.60
2024-05-09T07:07:10.889Z,19.33
2024-05-09T07:09:59.921Z,15.30
2024-05-09T07:12:46.261Z,16.30
2024-05-09T07:15:35.153Z,17.40
2024-05-09T07:18:21.511Z,19.47
2024-05-09T07:21:15.922Z,17.30
2024-05-09T07:24:04.495Z,18.20
2024-05-09T07:26:50.464Z,17.43
2024-05-09T07:29:39.113Z,16.07
2024-05-09T07:32:25.519Z,22.17
2024-05-09T07:35:14.400Z,16.23
2024-05-09T07:38:03.260Z,14.80
2024-05-09T07:40:51.986Z,17.33
2024-05-09T07:43:37.941Z,14.87
2024-05-09T07:50:55.899Z,19.97
2024-05-09T07:55:21.485Z,15.60
2024-05-09T07:58:10.193Z,17.93
2024-05-09T08:00:56.469Z,20.33
2024-05-09T08:03:45.228Z,17.40
2024-05-09T08:06:32.428Z,18.83
2024-05-09T08:09:21.816Z,18.47
2024-05-09T08:12:12.976Z,15.65
2024-05-09T08:15:01.614Z,16.30
2024-05-09T08:17:47.879Z,16.10
2024-05-09T08:20:36.686Z,15.33
2024-05-09T08:23:23.886Z,15.83
2024-05-09T08:26:12.720Z,14.88
2024-05-09T08:29:01.492Z,13.90
2024-05-09T08:31:50.516Z,15.20
2024-05-09T08:34:36.777Z,14.90
2024-05-09T08:37:29.449Z,15.48
2024-05-09T08:40:27.285Z,14.32
2024-05-09T08:43:22.075Z,13.35
2024-05-09T08:46:15.636Z,12.45
2024-05-09T08:49:03.163Z,14.48
2024-05-09T08:51:52.342Z,13.10
2024-05-09T08:54:38.335Z,12.27
2024-05-09T08:57:28.970Z,13.27
2024-05-09T09:00:21.703Z,12.25
2024-05-09T09:03:22.054Z,10.70
2024-05-09T09:06:15.293Z,13.45
2024-05-09T09:09:06.123Z,13.07
2024-05-09T09:11:52.453Z,14.57
2024-05-09T09:14:40.823Z,12.13
2024-05-09T09:17:26.852Z,12.13
2024-05-09T09:20:25.942Z,11.15
2024-05-09T09:23:15.595Z,15.00
2024-05-09T09:26:04.190Z,12.85
2024-05-09T09:28:50.332Z,15.30
2024-05-09T09:31:39.684Z,13.00
2024-05-09T09:34:28.076Z,10.85
2024-05-09T09:37:24.473Z,13.05
2024-05-09T09:40:15.604Z,11.77
2024-05-09T09:43:09.619Z,11.27
2024-05-09T09:45:59.909Z,10.93
2024-05-09T09:48:49.966Z,11.13
2024-05-09T09:51:36.547Z,9.23
2024-05-09T09:54:29.302Z,11.27
2024-05-09T09:57:19.497Z,13.35
2024-05-09T10:00:11.853Z,9.50
2024-05-09T10:03:00.416Z,12.57
2024-05-09T10:05:49.548Z,13.13
2024-05-09T10:08:36.547Z,10.45
2024-05-09T10:11:28.513Z,10.63
2024-05-09T10:14:20.176Z,11.10
2024-05-09T10:17:09.248Z,9.93
2024-05-09T10:20:14.377Z,13.55
2024-05-09T10:23:24.444Z,9.93
2024-05-09T10:26:10.665Z,11.98
2024-05-09T10:29:03.364Z,9.02
2024-05-09T10:31:49.863Z,10.13
2024-05-09T10:34:38.577Z,9.25
2024-05-09T10:37:25.512Z,9.52
2024-05-09T10:40:25.924Z,12.32
2024-05-09T10:43:19.523Z,10.32
2024-05-09T10:46:12.104Z,9.38
2024-05-09T10:49:00.338Z,9.15
2024-05-09T10:51:52.100Z,8.82
2024-05-09T10:54:38.551Z,8.93
2024-05-09T10:57:27.489Z,10.20
2024-05-09T11:00:26.892Z,10.13
2024-05-09T11:03:19.461Z,8.23
2024-05-09T11:06:09.925Z,9.65
2024-05-09T11:08:57.267Z,9.20
2024-05-09T11:11:46.139Z,10.85
2024-05-09T11:14:32.098Z,9.13
2024-05-09T11:17:21.165Z,8.10
2024-05-09T11:20:16.757Z,9.20
2024-05-09T11:23:09.159Z,8.40
2024-05-09T11:25:57.244Z,8.25
2024-05-09T11:28:47.840Z,9.50
2024-05-09T11:31:44.739Z,7.95
2024-05-09T11:34:33.566Z,8.40
2024-05-09T11:37:22.245Z,8.35
2024-05-09T11:40:20.726Z,9.07
2024-05-09T11:43:11.340Z,7.28
2024-05-09T11:46:00.439Z,8.95
2024-05-09T11:48:46.501Z,8.30
2024-05-09T11:51:35.758Z,9.25
2024-05-09T11:54:27.265Z,8.52
2024-05-09T11:57:13.506Z,12.40
2024-05-09T12:00:02.325Z,8.05
2024-05-09T12:02:48.203Z,9.15
2024-05-09T12:05:37.160Z,7.28
2024-05-09T12:08:23.650Z,8.80
2024-05-09T12:11:16.644Z,7.97
2024-05-09T12:14:05.247Z,10.57
2024-05-09T12:16:51.584Z,7.45
2024-05-09T12:19:40.299Z,6.53
2024-05-09T12:22:26.528Z,8.75
2024-05-09T12:25:15.303Z,8.20
2024-05-09T12:28:04.385Z,7.75
2024-05-09T12:30:53.129Z,8.00
2024-05-09T12:33:39.409Z,8.43
2024-05-09T12:36:28.482Z,8.48
2024-05-09T12:39:14.395Z,8.85
2024-05-09T12:42:03.054Z,8.07
2024-05-09T12:44:51.752Z,7.95
2024-05-09T12:47:40.327Z,11.07
2024-05-09T12:50:32.416Z,7.10
2024-05-09T12:53:22.686Z,8.25
2024-05-09T12:56:09.554Z,7.70
2024-05-09T12:58:58.246Z,7.78
2024-05-09T13:01:47.104Z,7.85
2024-05-09T13:04:35.888Z,6.68
2024-05-09T13:07:22.262Z,8.77
2024-05-09T13:10:16.166Z,7.38
2024-05-09T13:13:05.855Z,10.07
2024-05-09T13:15:54.588Z,8.45
2024-05-09T13:18:44.307Z,6.50
2024-05-09T13:21:32.825Z,7.60
2024-05-09T13:24:18.956Z,7.68
2024-05-09T13:27:07.702Z,6.85
2024-05-09T13:29:57.319Z,7.88
2024-05-09T13:32:46.367Z,7.40
2024-05-09T13:35:36.025Z,7.57
2024-05-09T13:38:24.965Z,8.25
2024-05-09T13:41:11.720Z,7.28
2024-05-09T13:44:00.927Z,5.60
2024-05-09T13:46:47.367Z,6.40
2024-05-09T13:49:36.180Z,5.07
2024-05-09T13:52:26.343Z,7.43
2024-05-09T13:55:15.502Z,6.00
2024-05-09T13:58:01.954Z,6.25
2024-05-09T14:00:50.906Z,7.22
2024-05-09T14:03:37.019Z,8.05
2024-05-09T14:06:25.954Z,7.75
2024-05-09T14:09:15.171Z,6.85
2024-05-09T14:12:03.686Z,8.13
2024-05-09T14:14:49.802Z,7.45
2024-05-09T14:17:38.787Z,6.75
2024-05-09T14:20:30.993Z,6.35
2024-05-09T14:23:21.171Z,6.13
2024-05-09T14:26:10.060Z,5.25
2024-05-09T14:28:58.653Z,6.85
2024-05-09T14:31:44.688Z,6.47
2024-05-09T14:34:33.991Z,5.38
2024-05-09T14:37:20.374Z,5.03
2024-05-09T14:40:21.548Z,6.60
2024-05-09T14:43:18.575Z,7.50
2024-05-09T14:46:07.661Z,6.22
2024-05-09T14:48:54.193Z,5.22
2024-05-09T14:51:45.216Z,7.00
2024-05-09T14:54:31.839Z,6.15
2024-05-09T14:57:20.676Z,4.93
2024-05-09T15:00:17.468Z,5.00
2024-05-09T15:03:14.190Z,5.03
2024-05-09T15:06:03.202Z,5.35
2024-05-09T15:08:54.977Z,5.68
2024-05-09T15:11:44.076Z,5.63
2024-05-09T15:14:29.866Z,4.97
2024-05-09T15:17:21.621Z,8.05
2024-05-09T15:20:09.770Z,6.85
2024-05-09T15:23:01.351Z,5.65
2024-05-09T15:25:47.484Z,4.88
2024-05-09T15:28:36.761Z,7.50
2024-05-09T15:31:22.754Z,5.13
2024-05-09T15:34:13.947Z,5.00
2024-05-09T15:37:00.307Z,4.40
2024-05-09T15:39:49.637Z,5.38
2024-05-09T15:42:35.770Z,5.13
2024-05-09T15:45:24.454Z,5.70
2024-05-09T15:48:11.614Z,6.75
2024-05-09T15:51:03.091Z,6.40
2024-05-09T15:53:49.054Z,6.60
2024-05-09T15:56:37.815Z,6.30
2024-05-09T15:59:23.832Z,4.90
2024-05-09T16:02:13.385Z,5.80
2024-05-09T16:04:59.500Z,6.53
2024-05-09T16:07:50.717Z,5.93
2024-05-09T16:10:42.437Z,6.45
2024-05-09T16:13:32.952Z,6.50
2024-05-09T16:16:19.214Z,5.15
2024-05-09T16:19:09.873Z,4.13
2024-05-09T16:21:56.981Z,5.57
2024-05-09T16:24:48.539Z,4.93
2024-05-09T16:27:34.438Z,4.70
2024-05-09T16:30:31.447Z,5.95
2024-05-09T16:33:23.725Z,5.75
2024-05-09T16:36:12.592Z,7.63
2024-05-09T16:38:59.019Z,7.32
2024-05-09T16:41:50.408Z,7.75
2024-05-09T16:44:36.444Z,5.55
2024-05-09T16:47:25.648Z,4.20
2024-05-09T16:50:15.810Z,4.82
2024-05-09T16:53:08.714Z,7.18
2024-05-09T16:55:54.985Z,6.28
2024-05-09T16:58:46.519Z,4.93
2024-05-09T17:01:32.712Z,6.63
2024-05-09T17:04:21.425Z,6.80
2024-05-09T17:07:07.551Z,6.53
2024-05-09T17:09:56.482Z,7.00
2024-05-09T17:12:45.413Z,5.18
2024-05-09T17:15:37.498Z,5.40
2024-05-09T17:18:26.542Z,4.90
2024-05-09T17:21:12.460Z,7.35
2024-05-09T17:24:01.354Z,5.85
2024-05-09T17:26:47.508Z,5.30
2024-05-09T17:29:37.551Z,5.18
2024-05-09T17:32:28.741Z,6.00
2024-05-09T17:35:15.485Z,5.50
2024-05-09T17:38:04.202Z,4.63
2024-05-09T17:40:50.979Z,4.47
2024-05-09T17:43:39.720Z,3.65
2024-05-09T17:46:28.874Z,5.70
2024-05-09T17:49:17.828Z,5.25
2024-05-09T17:52:06.632Z,5.97
2024-05-09T17:54:52.708Z,5.18
2024-05-09T17:57:41.571Z,5.18
2024-05-09T18:00:37.175Z,5.10
2024-05-09T18:03:29.026Z,4.53
2024-05-09T18:06:18.115Z,5.07
2024-05-09T18:09:06.915Z,5.18
2024-05-09T18:11:55.545Z,5.68
2024-05-09T18:14:41.642Z,5.93
2024-05-09T18:17:31.016Z,4.32
2024-05-09T18:20:24.237Z,6.22
2024-05-09T18:23:24.670Z,6.47
2024-05-09T18:26:13.614Z,5.25
2024-05-09T18:28:59.579Z,4.90
2024-05-09T18:31:48.464Z,10.20
2024-05-09T18:34:34.639Z,6.38
2024-05-09T18:37:23.666Z,6.40
2024-05-09T18:40:20.911Z,6.18
2024-05-09T18:43:16.968Z,6.60
2024-05-09T18:46:04.163Z,5.32
2024-05-09T18:48:53.289Z,4.72
2024-05-09T18:51:39.224Z,8.82
2024-05-09T18:54:28.061Z,6.75
2024-05-09T18:57:16.791Z,5.55
2024-05-09T19:00:05.756Z,4.75
2024-05-09T19:02:51.980Z,9.38
2024-05-09T19:05:41.684Z,5.63
2024-05-09T19:08:31.586Z,7.05
2024-05-09T19:11:17.983Z,9.07
2024-05-09T19:14:09.333Z,6.63
2024-05-09T19:16:55.510Z,5.85
2024-05-09T19:19:44.400Z,7.13
2024-05-09T19:22:30.638Z,6.77
2024-05-09T19:25:19.395Z,8.50
2024-05-09T19:28:06.247Z,7.63
2024-05-09T19:30:57.466Z,6.93
2024-05-09T19:33:43.655Z,7.63
2024-05-09T19:36:32.613Z,8.27
2024-05-09T19:39:21.338Z,7.57
2024-05-09T19:42:10.159Z,8.40
2024-05-09T19:44:56.160Z,8.00
2024-05-09T19:47:47.716Z,10.27
2024-05-09T19:50:41.209Z,15.40
2024-05-09T19:53:33.485Z,21.97
2024-05-09T19:56:19.532Z,14.33
2024-05-09T19:59:08.279Z,18.87
2024-05-09T20:01:54.612Z,20.40
2024-05-09T20:04:47.885Z,13.90
2024-05-09T20:07:36.154Z,12.90
2024-05-09T20:10:31.122Z,27.00
2024-05-09T20:13:21.913Z,21.07
2024-05-09T20:16:08.349Z,19.60
2024-05-09T20:18:57.563Z,17.27
2024-05-09T20:21:46.439Z,12.00
2024-05-09T20:24:35.303Z,13.43
2024-05-09T20:27:21.495Z,12.87
2024-05-09T20:30:14.429Z,8.50
2024-05-09T20:33:04.548Z,7.20
2024-05-09T20:35:55.621Z,7.50
2024-05-09T20:38:44.449Z,7.67
2024-05-09T20:41:35.184Z,5.70
2024-05-09T20:44:21.912Z,16.33
2024-05-09T20:47:12.167Z,10.00
2024-05-09T20:49:58.058Z,8.97
2024-05-09T20:52:46.727Z,11.47
2024-05-09T20:55:35.539Z,10.07
2024-05-09T20:58:24.410Z,7.17
2024-05-09T21:01:10.695Z,8.33
2024-05-09T21:04:01.321Z,10.57
2024-05-09T21:06:47.676Z,7.67
2024-05-09T21:09:36.352Z,7.53
2024-05-09T21:12:25.357Z,6.33
2024-05-09T21:15:14.194Z,6.90
2024-05-09T21:18:00.406Z,7.47
2024-05-09T21:20:49.317Z,7.60
2024-05-09T21:23:36.221Z,7.00
2024-05-09T21:26:25.787Z,5.83
2024-05-09T21:29:14.494Z,7.73
2024-05-09T21:32:03.358Z,5.53
2024-05-09T21:34:49.632Z,6.03
2024-05-09T21:37:38.861Z,7.83
2024-05-09T21:40:34.109Z,5.30
2024-05-09T21:43:26.854Z,9.97
2024-05-09T21:46:15.474Z,7.10
2024-05-09T21:49:04.444Z,6.07
2024-05-09T21:51:50.613Z,7.47
2024-05-09T21:54:39.266Z,7.27
2024-05-09T21:57:25.298Z,7.30
2024-05-09T22:00:28.517Z,9.50
2024-05-09T22:03:26.490Z,7.47
2024-05-09T22:06:12.929Z,7.00
2024-05-09T22:09:05.083Z,7.03
2024-05-09T22:11:52.944Z,6.27
2024-05-09T22:14:42.923Z,5.83
2024-05-09T22:17:29.353Z,6.20
2024-05-09T22:20:28.821Z,6.80
2024-05-09T22:23:22.060Z,8.23
2024-05-09T22:26:11.016Z,7.87
2024-05-09T22:28:57.299Z,7.17
2024-05-09T22:31:46.050Z,7.67
2024-05-09T22:34:32.239Z,7.03
2024-05-09T22:37:23.478Z,6.77
2024-05-09T22:42:59.467Z,7.40
2024-05-09T22:45:45.417Z,8.67
2024-05-09T22:48:34.493Z,8.33
2024-05-09T22:51:20.613Z,10.00
2024-05-09T22:54:12.087Z,6.87
2024-05-09T22:56:57.969Z,6.37
2024-05-09T22:59:46.882Z,8.43
2024-05-09T23:02:33.267Z,7.17
2024-05-09T23:05:22.425Z,8.07
2024-05-09T23:08:08.982Z,8.33
2024-05-09T23:11:00.664Z,7.97
2024-05-09T23:13:46.942Z,10.63
2024-05-09T23:16:36.002Z,8.97
2024-05-09T23:19:22.084Z,7.93
2024-05-09T23:22:11.145Z,6.97
2024-05-09T23:24:58.020Z,8.07
2024-05-09T23:27:49.257Z,8.53
2024-05-09T23:30:38.907Z,10.77
2024-05-09T23:33:29.269Z,11.73
2024-05-09T23:36:15.343Z,7.17
2024-05-09T23:39:04.227Z,9.90
2024-05-09T23:41:50.577Z,6.97
2024-05-09T23:44:42.224Z,7.57
2024-05-09T23:47:28.164Z,7.67
2024-05-09T23:50:23.893Z,8.90
2024-05-09T23:53:17.454Z,7.50
2024-05-09T23:56:06.123Z,6.93
2024-05-09T23:58:54.814Z,9.70
